Tollhouse, CA (93667)

4:21 AM PST on March 05, 2015 (GMT -0800)
Burrough Valley - South Forty | Change Station
CLOSE
Current Station
Personal Weather Station
Location: Tollhouse, CA
Elevation: 2077 ft
Nearby Weather Stations

Elev 2077 ft 36.99 °N, 119.37 °W | Updated 10 minutes ago

Clear
Clear
44.6 °F
Feels Like 45 °F
N
0.0
Wind Variable Wind from SSW
Gusts 1.0 mph

Today
High -- | Low -- °F
--% Chance of Precip.
Yesterday
High -- | Low -- °F
Precip. -- in
6:23 AM 5:55 PM
Full, 100% visible
Pressure 30.25 in
Visibility 10.0 miles
Clouds Clear
Windchill 45 °F
Dew Point 40 °F
Humidity 84%
Rainfall in
Snow Depth Not available.
UV 0 out of 12
Pollen 7.60 out of 12
Air Quality Not available.
Flu Activity Not available.
METAR KFAT 051153Z 00000KT 10SM CLR 07/04 A3025 RMK AO2 SLP242 T00720039 10117 20067 51003

More Conditions Fewer Conditions

Pressure 30.25 in
Visibility 10.0 miles
Clouds Clear
Windchill 45 °F
Dew Point 40 °F
Humidity 84%
Rainfall in
Snow Depth Not available.
UV 0 out of 12
Pollen 7.60 out of 12
Air Quality Not available.
Flu Activity Not available.
METAR KFAT 051153Z 00000KT 10SM CLR 07/04 A3025 RMK AO2 SLP242 T00720039 10117 20067 51003

More Conditions Fewer Conditions

10-Day Weather Forecast

Almanac

Astronomy

Mar. 05, 2015 Rise Set
Actual Time
Civil Twilight
Nautical Twilight
Astronomical Twilight
Moon
Length of Visible Light
Length of Day
Tomorrow will be .
, % of the Moon is Illuminated

Today's Extremes

State Highs State Lows

Community

WunderPhotos

Upload Photos

1,802,723 photos uploaded!

WunderBlogs® & News

Nearby

Air Quality

  Air Quality AQ Index Pollutant
Not available.

Snow Depth

Station Depth Elevation

Earthquake Activity

City Distance Mag. Time & Date
Minimum magnitude displayed is 2.5.

Coastal Water Temperatures

Place Temperature

Nearby Weather Stations